sensor_id;sensor_type;location;lat;lon;timestamp;P1;durP1;ratioP1;P2;durP2;ratioP2
62925;SDS011;55732;52.248;-0.844;2022-09-21T00:00:21;3.90;;;2.80;;
62925;SDS011;55732;52.248;-0.844;2022-09-21T00:02:47;4.90;;;2.50;;
62925;SDS011;55732;52.248;-0.844;2022-09-21T00:05:13;8.80;;;3.10;;
62925;SDS011;55732;52.248;-0.844;2022-09-21T00:07:38;5.30;;;3.10;;
62925;SDS011;55732;52.248;-0.844;2022-09-21T00:10:04;7.00;;;3.80;;
62925;SDS011;55732;52.248;-0.844;2022-09-21T00:12:30;6.00;;;3.60;;
62925;SDS011;55732;52.248;-0.844;2022-09-21T00:14:55;5.40;;;2.80;;
62925;SDS011;55732;52.248;-0.844;2022-09-21T00:17:22;5.30;;;2.70;;
62925;SDS011;55732;52.248;-0.844;2022-09-21T00:19:47;5.00;;;3.20;;
62925;SDS011;55732;52.248;-0.844;2022-09-21T00:22:12;6.20;;;3.40;;
62925;SDS011;55732;52.248;-0.844;2022-09-21T00:24:38;7.40;;;3.20;;
62925;SDS011;55732;52.248;-0.844;2022-09-21T00:27:03;5.80;;;3.20;;
62925;SDS011;55732;52.248;-0.844;2022-09-21T00:29:29;6.60;;;3.20;;
62925;SDS011;55732;52.248;-0.844;2022-09-21T00:31:54;5.70;;;3.70;;
62925;SDS011;55732;52.248;-0.844;2022-09-21T00:34:20;5.10;;;3.00;;
62925;SDS011;55732;52.248;-0.844;2022-09-21T00:36:45;12.50;;;3.40;;
62925;SDS011;55732;52.248;-0.844;2022-09-21T00:39:11;5.00;;;2.80;;
62925;SDS011;55732;52.248;-0.844;2022-09-21T00:41:37;4.60;;;2.80;;
62925;SDS011;55732;52.248;-0.844;2022-09-21T00:46:40;4.90;;;2.80;;
62925;SDS011;55732;52.248;-0.844;2022-09-21T00:49:06;6.20;;;2.90;;
62925;SDS011;55732;52.248;-0.844;2022-09-21T00:51:32;4.80;;;3.00;;
62925;SDS011;55732;52.248;-0.844;2022-09-21T00:54:00;4.60;;;3.10;;
62925;SDS011;55732;52.248;-0.844;2022-09-21T00:56:29;4.00;;;2.50;;
62925;SDS011;55732;52.248;-0.844;2022-09-21T00:58:55;3.90;;;2.90;;
62925;SDS011;55732;52.248;-0.844;2022-09-21T01:01:21;4.10;;;2.90;;
62925;SDS011;55732;52.248;-0.844;2022-09-21T01:03:49;4.10;;;2.80;;
62925;SDS011;55732;52.248;-0.844;2022-09-21T01:06:15;5.00;;;3.00;;
62925;SDS011;55732;52.248;-0.844;2022-09-21T01:08:44;5.30;;;2.90;;
62925;SDS011;55732;52.248;-0.844;2022-09-21T01:24:29;4.50;;;3.20;;
62925;SDS011;55732;52.248;-0.844;2022-09-21T01:30:28;4.00;;;2.80;;
62925;SDS011;55732;52.248;-0.844;2022-09-21T01:38:25;4.90;;;2.90;;
62925;SDS011;55732;52.248;-0.844;2022-09-21T01:41:03;4.40;;;2.90;;
62925;SDS011;55732;52.248;-0.844;2022-09-21T01:43:33;4.00;;;2.80;;
62925;SDS011;55732;52.248;-0.844;2022-09-21T01:46:02;4.60;;;2.40;;
62925;SDS011;55732;52.248;-0.844;2022-09-21T01:48:33;5.50;;;2.90;;
62925;SDS011;55732;52.248;-0.844;2022-09-21T01:51:03;5.40;;;2.80;;
62925;SDS011;55732;52.248;-0.844;2022-09-21T01:53:35;7.10;;;2.70;;
62925;SDS011;55732;52.248;-0.844;2022-09-21T01:56:26;4.80;;;2.80;;
62925;SDS011;55732;52.248;-0.844;2022-09-21T01:59:04;3.80;;;3.00;;
62925;SDS011;55732;52.248;-0.844;2022-09-21T02:01:53;4.80;;;3.00;;
62925;SDS011;55732;52.248;-0.844;2022-09-21T02:04:23;4.80;;;2.60;;
62925;SDS011;55732;52.248;-0.844;2022-09-21T02:06:49;3.20;;;2.60;;
62925;SDS011;55732;52.248;-0.844;2022-09-21T02:09:15;3.20;;;2.60;;
62925;SDS011;55732;52.248;-0.844;2022-09-21T02:11:42;2.90;;;2.30;;
62925;SDS011;55732;52.248;-0.844;2022-09-21T02:14:12;4.00;;;3.00;;
62925;SDS011;55732;52.248;-0.844;2022-09-21T02:22:08;4.50;;;2.90;;
62925;SDS011;55732;52.248;-0.844;2022-09-21T02:24:39;4.00;;;2.80;;
62925;SDS011;55732;52.248;-0.844;2022-09-21T02:27:30;3.30;;;2.40;;
62925;SDS011;55732;52.248;-0.844;2022-09-21T02:30:20;3.40;;;2.50;;
62925;SDS011;55732;52.248;-0.844;2022-09-21T02:38:11;3.40;;;2.40;;
62925;SDS011;55732;52.248;-0.844;2022-09-21T02:40:48;5.10;;;2.60;;
62925;SDS011;55732;52.248;-0.844;2022-09-21T02:46:08;3.00;;;2.60;;
62925;SDS011;55732;52.248;-0.844;2022-09-21T02:48:50;3.40;;;2.50;;
62925;SDS011;55732;52.248;-0.844;2022-09-21T02:51:20;5.80;;;2.50;;
62925;SDS011;55732;52.248;-0.844;2022-09-21T02:53:59;3.30;;;2.50;;
62925;SDS011;55732;52.248;-0.844;2022-09-21T02:56:29;2.70;;;2.30;;
62925;SDS011;55732;52.248;-0.844;2022-09-21T02:58:56;2.90;;;2.40;;
62925;SDS011;55732;52.248;-0.844;2022-09-21T03:01:24;2.40;;;2.10;;
62925;SDS011;55732;52.248;-0.844;2022-09-21T03:03:51;6.40;;;2.50;;
62925;SDS011;55732;52.248;-0.844;2022-09-21T03:06:17;4.50;;;2.90;;
62925;SDS011;55732;52.248;-0.844;2022-09-21T03:08:43;3.50;;;2.80;;
62925;SDS011;55732;52.248;-0.844;2022-09-21T03:11:08;3.20;;;2.50;;
62925;SDS011;55732;52.248;-0.844;2022-09-21T03:13:35;4.30;;;2.60;;
62925;SDS011;55732;52.248;-0.844;2022-09-21T03:16:02;5.00;;;2.60;;
62925;SDS011;55732;52.248;-0.844;2022-09-21T03:18:31;4.50;;;2.70;;
62925;SDS011;55732;52.248;-0.844;2022-09-21T03:20:57;4.30;;;2.60;;
62925;SDS011;55732;52.248;-0.844;2022-09-21T03:23:23;3.60;;;2.70;;
62925;SDS011;55732;52.248;-0.844;2022-09-21T03:25:49;4.30;;;2.80;;
62925;SDS011;55732;52.248;-0.844;2022-09-21T03:28:16;5.60;;;2.60;;
62925;SDS011;55732;52.248;-0.844;2022-09-21T03:30:43;4.60;;;2.70;;
62925;SDS011;55732;52.248;-0.844;2022-09-21T03:33:09;4.40;;;2.60;;
62925;SDS011;55732;52.248;-0.844;2022-09-21T03:35:36;4.40;;;2.80;;
62925;SDS011;55732;52.248;-0.844;2022-09-21T03:38:03;3.00;;;2.50;;
62925;SDS011;55732;52.248;-0.844;2022-09-21T03:40:29;4.40;;;2.70;;
62925;SDS011;55732;52.248;-0.844;2022-09-21T03:42:55;3.60;;;2.70;;
62925;SDS011;55732;52.248;-0.844;2022-09-21T03:45:21;3.20;;;2.30;;
62925;SDS011;55732;52.248;-0.844;2022-09-21T03:47:47;2.80;;;2.40;;
62925;SDS011;55732;52.248;-0.844;2022-09-21T03:50:12;2.80;;;2.60;;
62925;SDS011;55732;52.248;-0.844;2022-09-21T03:52:38;4.00;;;2.60;;
62925;SDS011;55732;52.248;-0.844;2022-09-21T03:55:04;3.50;;;2.70;;
62925;SDS011;55732;52.248;-0.844;2022-09-21T03:57:31;6.60;;;2.80;;
62925;SDS011;55732;52.248;-0.844;2022-09-21T03:59:58;4.50;;;2.60;;
62925;SDS011;55732;52.248;-0.844;2022-09-21T04:02:24;5.10;;;3.10;;
62925;SDS011;55732;52.248;-0.844;2022-09-21T04:04:49;3.70;;;2.70;;
62925;SDS011;55732;52.248;-0.844;2022-09-21T04:07:15;4.40;;;2.80;;
62925;SDS011;55732;52.248;-0.844;2022-09-21T04:09:40;4.40;;;2.90;;
62925;SDS011;55732;52.248;-0.844;2022-09-21T04:12:06;5.50;;;2.80;;
62925;SDS011;55732;52.248;-0.844;2022-09-21T04:14:31;7.80;;;3.40;;
62925;SDS011;55732;52.248;-0.844;2022-09-21T04:16:57;5.20;;;3.30;;
62925;SDS011;55732;52.248;-0.844;2022-09-21T04:19:23;4.10;;;2.70;;
62925;SDS011;55732;52.248;-0.844;2022-09-21T04:21:49;4.40;;;3.00;;
62925;SDS011;55732;52.248;-0.844;2022-09-21T04:24:15;4.30;;;2.80;;
62925;SDS011;55732;52.248;-0.844;2022-09-21T04:26:43;5.60;;;3.10;;
62925;SDS011;55732;52.248;-0.844;2022-09-21T04:29:10;4.00;;;2.90;;
62925;SDS011;55732;52.248;-0.844;2022-09-21T04:31:37;4.40;;;3.00;;
62925;SDS011;55732;52.248;-0.844;2022-09-21T04:34:02;4.20;;;2.70;;
62925;SDS011;55732;52.248;-0.844;2022-09-21T04:36:28;4.20;;;2.90;;
62925;SDS011;55732;52.248;-0.844;2022-09-21T04:38:55;5.60;;;3.40;;
62925;SDS011;55732;52.248;-0.844;2022-09-21T04:41:22;3.90;;;2.70;;
62925;SDS011;55732;52.248;-0.844;2022-09-21T04:43:47;7.30;;;3.10;;
62925;SDS011;55732;52.248;-0.844;2022-09-21T04:46:14;5.80;;;3.10;;
62925;SDS011;55732;52.248;-0.844;2022-09-21T04:48:41;5.20;;;3.30;;
62925;SDS011;55732;52.248;-0.844;2022-09-21T04:51:07;3.50;;;2.80;;
62925;SDS011;55732;52.248;-0.844;2022-09-21T04:53:34;4.00;;;2.50;;
62925;SDS011;55732;52.248;-0.844;2022-09-21T04:56:01;8.10;;;3.20;;
62925;SDS011;55732;52.248;-0.844;2022-09-21T04:58:28;5.20;;;3.30;;
62925;SDS011;55732;52.248;-0.844;2022-09-21T05:00:53;6.40;;;2.90;;
62925;SDS011;55732;52.248;-0.844;2022-09-21T05:03:20;4.30;;;2.70;;
62925;SDS011;55732;52.248;-0.844;2022-09-21T05:05:50;7.40;;;3.00;;
62925;SDS011;55732;52.248;-0.844;2022-09-21T05:08:17;3.50;;;2.80;;
62925;SDS011;55732;52.248;-0.844;2022-09-21T05:11:07;6.00;;;3.00;;
62925;SDS011;55732;52.248;-0.844;2022-09-21T05:13:43;5.00;;;3.00;;
62925;SDS011;55732;52.248;-0.844;2022-09-21T05:16:09;4.90;;;3.10;;
62925;SDS011;55732;52.248;-0.844;2022-09-21T05:18:35;4.20;;;2.60;;
62925;SDS011;55732;52.248;-0.844;2022-09-21T05:21:00;4.10;;;2.80;;
62925;SDS011;55732;52.248;-0.844;2022-09-21T05:23:28;3.50;;;2.70;;
62925;SDS011;55732;52.248;-0.844;2022-09-21T05:25:55;5.30;;;2.60;;
62925;SDS011;55732;52.248;-0.844;2022-09-21T05:28:22;3.20;;;2.90;;
62925;SDS011;55732;52.248;-0.844;2022-09-21T05:30:53;3.40;;;2.50;;
62925;SDS011;55732;52.248;-0.844;2022-09-21T05:33:22;3.90;;;2.70;;
62925;SDS011;55732;52.248;-0.844;2022-09-21T05:36:00;5.50;;;2.90;;
62925;SDS011;55732;52.248;-0.844;2022-09-21T05:38:47;4.50;;;2.80;;
62925;SDS011;55732;52.248;-0.844;2022-09-21T05:41:13;6.20;;;2.90;;
62925;SDS011;55732;52.248;-0.844;2022-09-21T05:43:38;3.40;;;2.70;;
62925;SDS011;55732;52.248;-0.844;2022-09-21T05:46:08;4.50;;;2.70;;
62925;SDS011;55732;52.248;-0.844;2022-09-21T05:48:43;3.90;;;2.90;;
62925;SDS011;55732;52.248;-0.844;2022-09-21T05:51:26;4.00;;;2.60;;
62925;SDS011;55732;52.248;-0.844;2022-09-21T06:05:21;3.80;;;2.80;;
62925;SDS011;55732;52.248;-0.844;2022-09-21T06:07:46;4.80;;;2.70;;
62925;SDS011;55732;52.248;-0.844;2022-09-21T06:10:12;5.90;;;2.90;;
62925;SDS011;55732;52.248;-0.844;2022-09-21T06:12:39;3.70;;;2.80;;
62925;SDS011;55732;52.248;-0.844;2022-09-21T06:15:05;3.70;;;2.70;;
62925;SDS011;55732;52.248;-0.844;2022-09-21T06:17:34;3.80;;;2.80;;
62925;SDS011;55732;52.248;-0.844;2022-09-21T06:20:00;4.50;;;3.10;;
62925;SDS011;55732;52.248;-0.844;2022-09-21T06:22:27;6.70;;;3.20;;
62925;SDS011;55732;52.248;-0.844;2022-09-21T06:24:52;4.60;;;2.90;;
62925;SDS011;55732;52.248;-0.844;2022-09-21T06:27:18;6.10;;;2.50;;
62925;SDS011;55732;52.248;-0.844;2022-09-21T06:29:43;4.70;;;3.00;;
62925;SDS011;55732;52.248;-0.844;2022-09-21T06:32:08;5.00;;;3.00;;
62925;SDS011;55732;52.248;-0.844;2022-09-21T06:34:34;6.10;;;2.80;;
62925;SDS011;55732;52.248;-0.844;2022-09-21T06:36:59;5.30;;;3.20;;
62925;SDS011;55732;52.248;-0.844;2022-09-21T06:39:25;3.80;;;2.70;;
62925;SDS011;55732;52.248;-0.844;2022-09-21T06:41:50;5.10;;;2.80;;
62925;SDS011;55732;52.248;-0.844;2022-09-21T06:44:16;5.80;;;3.10;;
62925;SDS011;55732;52.248;-0.844;2022-09-21T06:46:41;6.50;;;3.00;;
62925;SDS011;55732;52.248;-0.844;2022-09-21T06:49:07;5.00;;;3.10;;
62925;SDS011;55732;52.248;-0.844;2022-09-21T06:51:32;4.60;;;2.90;;
62925;SDS011;55732;52.248;-0.844;2022-09-21T06:53:58;7.80;;;3.20;;
62925;SDS011;55732;52.248;-0.844;2022-09-21T06:56:24;4.50;;;2.90;;
62925;SDS011;55732;52.248;-0.844;2022-09-21T06:58:50;6.90;;;3.30;;
62925;SDS011;55732;52.248;-0.844;2022-09-21T07:01:16;5.40;;;3.50;;
62925;SDS011;55732;52.248;-0.844;2022-09-21T07:03:43;5.50;;;3.20;;
62925;SDS011;55732;52.248;-0.844;2022-09-21T07:06:09;4.40;;;3.20;;
62925;SDS011;55732;52.248;-0.844;2022-09-21T07:08:38;6.90;;;3.50;;
62925;SDS011;55732;52.248;-0.844;2022-09-21T07:11:04;7.20;;;3.20;;
62925;SDS011;55732;52.248;-0.844;2022-09-21T07:13:30;5.80;;;3.70;;
62925;SDS011;55732;52.248;-0.844;2022-09-21T07:15:55;5.50;;;3.40;;
62925;SDS011;55732;52.248;-0.844;2022-09-21T07:18:20;5.60;;;4.20;;
62925;SDS011;55732;52.248;-0.844;2022-09-21T07:20:46;5.80;;;3.10;;
62925;SDS011;55732;52.248;-0.844;2022-09-21T07:23:16;8.30;;;3.90;;
62925;SDS011;55732;52.248;-0.844;2022-09-21T07:25:44;9.50;;;3.60;;
62925;SDS011;55732;52.248;-0.844;2022-09-21T07:28:16;8.30;;;3.60;;
62925;SDS011;55732;52.248;-0.844;2022-09-21T07:30:42;6.60;;;3.60;;
62925;SDS011;55732;52.248;-0.844;2022-09-21T07:33:07;5.30;;;3.40;;
62925;SDS011;55732;52.248;-0.844;2022-09-21T07:35:33;11.90;;;4.00;;
62925;SDS011;55732;52.248;-0.844;2022-09-21T07:38:00;10.30;;;4.40;;
62925;SDS011;55732;52.248;-0.844;2022-09-21T07:40:27;6.60;;;4.10;;
62925;SDS011;55732;52.248;-0.844;2022-09-21T07:42:57;9.90;;;4.40;;
62925;SDS011;55732;52.248;-0.844;2022-09-21T07:45:23;9.10;;;4.80;;
62925;SDS011;55732;52.248;-0.844;2022-09-21T07:47:50;6.10;;;4.20;;
62925;SDS011;55732;52.248;-0.844;2022-09-21T07:50:18;5.80;;;4.30;;
62925;SDS011;55732;52.248;-0.844;2022-09-21T07:52:44;10.80;;;4.20;;
62925;SDS011;55732;52.248;-0.844;2022-09-21T07:55:10;6.40;;;4.30;;
62925;SDS011;55732;52.248;-0.844;2022-09-21T07:57:35;6.80;;;4.20;;
62925;SDS011;55732;52.248;-0.844;2022-09-21T08:00:20;9.80;;;4.60;;
62925;SDS011;55732;52.248;-0.844;2022-09-21T08:02:45;10.30;;;4.30;;
62925;SDS011;55732;52.248;-0.844;2022-09-21T08:05:11;5.80;;;4.20;;
62925;SDS011;55732;52.248;-0.844;2022-09-21T08:07:36;6.60;;;4.50;;
62925;SDS011;55732;52.248;-0.844;2022-09-21T08:10:02;7.10;;;4.50;;
62925;SDS011;55732;52.248;-0.844;2022-09-21T08:12:28;5.70;;;4.20;;
62925;SDS011;55732;52.248;-0.844;2022-09-21T08:14:53;12.20;;;4.80;;
62925;SDS011;55732;52.248;-0.844;2022-09-21T08:17:19;11.20;;;4.60;;
62925;SDS011;55732;52.248;-0.844;2022-09-21T08:19:44;7.30;;;5.00;;
62925;SDS011;55732;52.248;-0.844;2022-09-21T08:22:10;15.30;;;4.60;;
62925;SDS011;55732;52.248;-0.844;2022-09-21T08:24:38;5.90;;;4.90;;
62925;SDS011;55732;52.248;-0.844;2022-09-21T08:27:05;8.80;;;4.90;;
62925;SDS011;55732;52.248;-0.844;2022-09-21T08:29:32;6.70;;;4.80;;
62925;SDS011;55732;52.248;-0.844;2022-09-21T08:31:59;6.80;;;4.70;;
62925;SDS011;55732;52.248;-0.844;2022-09-21T08:34:26;6.10;;;4.70;;
62925;SDS011;55732;52.248;-0.844;2022-09-21T08:36:52;8.50;;;4.50;;
62925;SDS011;55732;52.248;-0.844;2022-09-21T08:39:17;7.50;;;4.80;;
62925;SDS011;55732;52.248;-0.844;2022-09-21T08:44:32;6.70;;;4.60;;
62925;SDS011;55732;52.248;-0.844;2022-09-21T08:47:11;9.30;;;4.40;;
62925;SDS011;55732;52.248;-0.844;2022-09-21T08:49:46;11.20;;;4.40;;
62925;SDS011;55732;52.248;-0.844;2022-09-21T08:52:18;7.60;;;4.60;;
62925;SDS011;55732;52.248;-0.844;2022-09-21T08:57:11;6.50;;;4.50;;
62925;SDS011;55732;52.248;-0.844;2022-09-21T08:59:39;8.80;;;5.00;;
62925;SDS011;55732;52.248;-0.844;2022-09-21T09:02:28;13.40;;;5.00;;
62925;SDS011;55732;52.248;-0.844;2022-09-21T09:05:03;9.30;;;5.20;;
62925;SDS011;55732;52.248;-0.844;2022-09-21T09:11:14;10.40;;;4.90;;
62925;SDS011;55732;52.248;-0.844;2022-09-21T09:21:17;7.50;;;4.90;;
62925;SDS011;55732;52.248;-0.844;2022-09-21T09:24:22;13.00;;;5.10;;
62925;SDS011;55732;52.248;-0.844;2022-09-21T09:27:00;8.20;;;4.30;;
62925;SDS011;55732;52.248;-0.844;2022-09-21T09:32:46;10.50;;;5.60;;
62925;SDS011;55732;52.248;-0.844;2022-09-21T09:35:24;7.20;;;5.30;;
62925;SDS011;55732;52.248;-0.844;2022-09-21T09:38:02;12.30;;;5.40;;
62925;SDS011;55732;52.248;-0.844;2022-09-21T09:51:37;9.60;;;4.80;;
62925;SDS011;55732;52.248;-0.844;2022-09-21T09:54:04;7.70;;;4.90;;
62925;SDS011;55732;52.248;-0.844;2022-09-21T09:56:38;6.30;;;5.00;;
62925;SDS011;55732;52.248;-0.844;2022-09-21T09:59:04;8.40;;;5.60;;
62925;SDS011;55732;52.248;-0.844;2022-09-21T10:01:44;10.00;;;5.20;;
62925;SDS011;55732;52.248;-0.844;2022-09-21T10:04:15;6.90;;;4.90;;
62925;SDS011;55732;52.248;-0.844;2022-09-21T10:06:42;6.50;;;4.70;;
62925;SDS011;55732;52.248;-0.844;2022-09-21T10:11:51;9.60;;;4.80;;
62925;SDS011;55732;52.248;-0.844;2022-09-21T10:14:20;9.60;;;4.30;;
62925;SDS011;55732;52.248;-0.844;2022-09-21T10:16:49;8.10;;;4.00;;
62925;SDS011;55732;52.248;-0.844;2022-09-21T10:19:18;6.40;;;3.90;;
62925;SDS011;55732;52.248;-0.844;2022-09-21T10:21:52;6.80;;;4.10;;
62925;SDS011;55732;52.248;-0.844;2022-09-21T10:24:25;7.90;;;4.10;;
62925;SDS011;55732;52.248;-0.844;2022-09-21T10:26:55;4.90;;;3.70;;
62925;SDS011;55732;52.248;-0.844;2022-09-21T10:29:30;5.40;;;4.10;;
62925;SDS011;55732;52.248;-0.844;2022-09-21T10:34:37;5.70;;;3.70;;
62925;SDS011;55732;52.248;-0.844;2022-09-21T10:40:01;7.00;;;4.40;;
62925;SDS011;55732;52.248;-0.844;2022-09-21T10:42:30;5.90;;;4.20;;
62925;SDS011;55732;52.248;-0.844;2022-09-21T10:47:58;5.00;;;3.90;;
62925;SDS011;55732;52.248;-0.844;2022-09-21T10:50:36;6.50;;;3.40;;
62925;SDS011;55732;52.248;-0.844;2022-09-21T10:53:31;5.70;;;4.20;;
62925;SDS011;55732;52.248;-0.844;2022-09-21T10:56:03;5.80;;;3.80;;
62925;SDS011;55732;52.248;-0.844;2022-09-21T10:58:32;4.30;;;3.50;;
62925;SDS011;55732;52.248;-0.844;2022-09-21T11:01:09;4.60;;;4.00;;
62925;SDS011;55732;52.248;-0.844;2022-09-21T11:04:05;4.80;;;3.80;;
62925;SDS011;55732;52.248;-0.844;2022-09-21T11:06:38;4.50;;;3.70;;
62925;SDS011;55732;52.248;-0.844;2022-09-21T11:20:34;4.60;;;3.20;;
62925;SDS011;55732;52.248;-0.844;2022-09-21T11:25:45;3.80;;;3.40;;
62925;SDS011;55732;52.248;-0.844;2022-09-21T11:28:37;4.60;;;3.60;;
62925;SDS011;55732;52.248;-0.844;2022-09-21T11:40:19;4.90;;;3.40;;
62925;SDS011;55732;52.248;-0.844;2022-09-21T11:45:54;4.50;;;3.00;;
62925;SDS011;55732;52.248;-0.844;2022-09-21T11:51:19;6.50;;;3.30;;
62925;SDS011;55732;52.248;-0.844;2022-09-21T12:17:06;4.80;;;3.10;;
62925;SDS011;55732;52.248;-0.844;2022-09-21T12:24:54;8.60;;;3.50;;
62925;SDS011;55732;52.248;-0.844;2022-09-21T12:30:06;4.30;;;3.10;;
62925;SDS011;55732;52.248;-0.844;2022-09-21T12:35:26;2.90;;;2.50;;
62925;SDS011;55732;52.248;-0.844;2022-09-21T12:38:11;3.60;;;2.90;;
62925;SDS011;55732;52.248;-0.844;2022-09-21T12:46:36;4.10;;;2.80;;
62925;SDS011;55732;52.248;-0.844;2022-09-21T12:49:11;4.40;;;2.70;;
62925;SDS011;55732;52.248;-0.844;2022-09-21T12:51:43;3.10;;;2.80;;
62925;SDS011;55732;52.248;-0.844;2022-09-21T12:59:38;3.10;;;2.80;;
62925;SDS011;55732;52.248;-0.844;2022-09-21T13:06:01;3.80;;;3.10;;
62925;SDS011;55732;52.248;-0.844;2022-09-21T13:08:50;3.60;;;2.60;;
62925;SDS011;55732;52.248;-0.844;2022-09-21T13:11:10;3.60;;;2.60;;
62925;SDS011;55732;52.248;-0.844;2022-09-21T13:13:37;3.10;;;2.40;;
62925;SDS011;55732;52.248;-0.844;2022-09-21T13:16:21;3.40;;;2.60;;
62925;SDS011;55732;52.248;-0.844;2022-09-21T13:18:54;3.00;;;2.60;;
62925;SDS011;55732;52.248;-0.844;2022-09-21T13:21:25;7.30;;;2.80;;
62925;SDS011;55732;52.248;-0.844;2022-09-21T13:26:37;2.70;;;2.20;;
62925;SDS011;55732;52.248;-0.844;2022-09-21T13:29:37;3.20;;;2.70;;
62925;SDS011;55732;52.248;-0.844;2022-09-21T13:34:25;5.00;;;2.70;;
62925;SDS011;55732;52.248;-0.844;2022-09-21T13:47:43;4.40;;;2.50;;
62925;SDS011;55732;52.248;-0.844;2022-09-21T13:52:46;2.70;;;2.50;;
62925;SDS011;55732;52.248;-0.844;2022-09-21T13:55:37;4.80;;;2.90;;
62925;SDS011;55732;52.248;-0.844;2022-09-21T14:00:49;4.90;;;2.40;;
62925;SDS011;55732;52.248;-0.844;2022-09-21T14:05:45;4.90;;;2.80;;
62925;SDS011;55732;52.248;-0.844;2022-09-21T14:10:44;3.30;;;2.30;;
62925;SDS011;55732;52.248;-0.844;2022-09-21T14:13:22;4.30;;;2.50;;
62925;SDS011;55732;52.248;-0.844;2022-09-21T14:15:54;3.30;;;2.50;;
62925;SDS011;55732;52.248;-0.844;2022-09-21T14:19:02;3.50;;;2.60;;
62925;SDS011;55732;52.248;-0.844;2022-09-21T14:33:19;3.30;;;2.60;;
62925;SDS011;55732;52.248;-0.844;2022-09-21T14:35:24;3.10;;;2.40;;
62925;SDS011;55732;52.248;-0.844;2022-09-21T14:37:54;3.00;;;2.30;;
62925;SDS011;55732;52.248;-0.844;2022-09-21T14:40:24;6.80;;;2.60;;
62925;SDS011;55732;52.248;-0.844;2022-09-21T14:42:58;3.10;;;2.30;;
62925;SDS011;55732;52.248;-0.844;2022-09-21T14:45:35;3.40;;;2.30;;
62925;SDS011;55732;52.248;-0.844;2022-09-21T14:48:14;4.30;;;2.20;;
62925;SDS011;55732;52.248;-0.844;2022-09-21T14:59:25;5.10;;;2.30;;
62925;SDS011;55732;52.248;-0.844;2022-09-21T15:02:02;5.80;;;2.40;;
62925;SDS011;55732;52.248;-0.844;2022-09-21T15:04:43;2.50;;;2.10;;
62925;SDS011;55732;52.248;-0.844;2022-09-21T15:10:27;3.80;;;2.40;;
62925;SDS011;55732;52.248;-0.844;2022-09-21T15:18:46;3.10;;;2.40;;
62925;SDS011;55732;52.248;-0.844;2022-09-21T15:21:21;4.80;;;2.20;;
62925;SDS011;55732;52.248;-0.844;2022-09-21T15:23:55;2.60;;;2.20;;
62925;SDS011;55732;52.248;-0.844;2022-09-21T15:26:22;3.50;;;2.30;;
62925;SDS011;55732;52.248;-0.844;2022-09-21T15:28:53;7.50;;;3.00;;
62925;SDS011;55732;52.248;-0.844;2022-09-21T15:31:22;2.30;;;2.10;;
62925;SDS011;55732;52.248;-0.844;2022-09-21T15:33:48;4.70;;;2.40;;
62925;SDS011;55732;52.248;-0.844;2022-09-21T15:36:23;3.40;;;2.30;;
62925;SDS011;55732;52.248;-0.844;2022-09-21T15:38:52;8.50;;;2.50;;
62925;SDS011;55732;52.248;-0.844;2022-09-21T15:41:45;3.00;;;2.30;;
62925;SDS011;55732;52.248;-0.844;2022-09-21T15:44:15;5.30;;;2.70;;
62925;SDS011;55732;52.248;-0.844;2022-09-21T15:46:52;2.70;;;2.20;;
62925;SDS011;55732;52.248;-0.844;2022-09-21T15:49:24;4.10;;;2.60;;
62925;SDS011;55732;52.248;-0.844;2022-09-21T15:51:53;6.90;;;2.40;;
62925;SDS011;55732;52.248;-0.844;2022-09-21T15:56:58;2.80;;;2.30;;
62925;SDS011;55732;52.248;-0.844;2022-09-21T15:59:25;3.20;;;2.60;;
62925;SDS011;55732;52.248;-0.844;2022-09-21T16:04:22;3.10;;;2.20;;
62925;SDS011;55732;52.248;-0.844;2022-09-21T16:11:57;5.70;;;2.70;;
62925;SDS011;55732;52.248;-0.844;2022-09-21T16:14:22;3.20;;;2.60;;
62925;SDS011;55732;52.248;-0.844;2022-09-21T16:22:21;5.60;;;2.70;;
62925;SDS011;55732;52.248;-0.844;2022-09-21T16:24:49;4.30;;;2.60;;
62925;SDS011;55732;52.248;-0.844;2022-09-21T16:27:20;2.70;;;2.40;;
62925;SDS011;55732;52.248;-0.844;2022-09-21T16:29:48;4.90;;;2.60;;
62925;SDS011;55732;52.248;-0.844;2022-09-21T16:34:48;3.40;;;2.40;;
62925;SDS011;55732;52.248;-0.844;2022-09-21T16:39:44;3.70;;;2.40;;
62925;SDS011;55732;52.248;-0.844;2022-09-21T16:42:10;2.60;;;2.30;;
62925;SDS011;55732;52.248;-0.844;2022-09-21T16:44:37;3.10;;;2.60;;
62925;SDS011;55732;52.248;-0.844;2022-09-21T16:47:21;3.10;;;2.60;;
62925;SDS011;55732;52.248;-0.844;2022-09-21T16:49:52;5.00;;;2.40;;
62925;SDS011;55732;52.248;-0.844;2022-09-21T16:52:24;5.70;;;2.50;;
62925;SDS011;55732;52.248;-0.844;2022-09-21T16:54:52;3.90;;;2.30;;
62925;SDS011;55732;52.248;-0.844;2022-09-21T16:57:21;4.90;;;2.50;;
62925;SDS011;55732;52.248;-0.844;2022-09-21T16:59:47;3.40;;;2.10;;
62925;SDS011;55732;52.248;-0.844;2022-09-21T17:02:14;3.50;;;2.50;;
62925;SDS011;55732;52.248;-0.844;2022-09-21T17:04:41;4.30;;;2.50;;
62925;SDS011;55732;52.248;-0.844;2022-09-21T17:07:11;8.70;;;2.80;;
62925;SDS011;55732;52.248;-0.844;2022-09-21T17:09:38;3.10;;;2.50;;
62925;SDS011;55732;52.248;-0.844;2022-09-21T17:12:13;5.00;;;2.50;;
62925;SDS011;55732;52.248;-0.844;2022-09-21T17:14:41;4.40;;;2.60;;
62925;SDS011;55732;52.248;-0.844;2022-09-21T17:19:44;3.20;;;2.20;;
62925;SDS011;55732;52.248;-0.844;2022-09-21T17:22:11;3.20;;;2.50;;
62925;SDS011;55732;52.248;-0.844;2022-09-21T17:24:47;3.60;;;2.30;;
62925;SDS011;55732;52.248;-0.844;2022-09-21T17:27:14;6.50;;;2.50;;
62925;SDS011;55732;52.248;-0.844;2022-09-21T17:29:44;4.20;;;2.60;;
62925;SDS011;55732;52.248;-0.844;2022-09-21T17:32:13;5.20;;;2.60;;
62925;SDS011;55732;52.248;-0.844;2022-09-21T17:37:06;4.20;;;2.80;;
62925;SDS011;55732;52.248;-0.844;2022-09-21T17:39:34;6.20;;;3.70;;
62925;SDS011;55732;52.248;-0.844;2022-09-21T17:42:19;5.30;;;3.40;;
62925;SDS011;55732;52.248;-0.844;2022-09-21T17:47:49;8.00;;;3.40;;
62925;SDS011;55732;52.248;-0.844;2022-09-21T17:50:33;5.60;;;3.20;;
62925;SDS011;55732;52.248;-0.844;2022-09-21T17:52:58;4.50;;;2.80;;
62925;SDS011;55732;52.248;-0.844;2022-09-21T17:55:49;4.90;;;3.30;;
62925;SDS011;55732;52.248;-0.844;2022-09-21T17:58:25;5.50;;;3.10;;
62925;SDS011;55732;52.248;-0.844;2022-09-21T18:03:29;4.70;;;2.90;;
62925;SDS011;55732;52.248;-0.844;2022-09-21T18:05:56;9.20;;;3.10;;
62925;SDS011;55732;52.248;-0.844;2022-09-21T18:08:26;5.50;;;2.90;;
62925;SDS011;55732;52.248;-0.844;2022-09-21T18:13:43;12.80;;;3.60;;
62925;SDS011;55732;52.248;-0.844;2022-09-21T18:19:03;4.30;;;3.20;;
62925;SDS011;55732;52.248;-0.844;2022-09-21T18:21:39;4.40;;;3.30;;
62925;SDS011;55732;52.248;-0.844;2022-09-21T18:24:20;5.30;;;3.10;;
62925;SDS011;55732;52.248;-0.844;2022-09-21T18:26:47;7.20;;;3.00;;
62925;SDS011;55732;52.248;-0.844;2022-09-21T18:29:24;4.30;;;3.20;;
62925;SDS011;55732;52.248;-0.844;2022-09-21T18:42:58;3.60;;;2.50;;
62925;SDS011;55732;52.248;-0.844;2022-09-21T18:45:41;6.80;;;2.30;;
62925;SDS011;55732;52.248;-0.844;2022-09-21T18:48:15;4.10;;;2.80;;
62925;SDS011;55732;52.248;-0.844;2022-09-21T18:56:02;7.30;;;2.80;;
62925;SDS011;55732;52.248;-0.844;2022-09-21T18:58:29;3.70;;;2.50;;
62925;SDS011;55732;52.248;-0.844;2022-09-21T19:00:55;4.60;;;2.80;;
62925;SDS011;55732;52.248;-0.844;2022-09-21T19:03:21;3.60;;;2.70;;
62925;SDS011;55732;52.248;-0.844;2022-09-21T19:11:56;6.60;;;2.80;;
62925;SDS011;55732;52.248;-0.844;2022-09-21T19:17:31;3.70;;;3.20;;
62925;SDS011;55732;52.248;-0.844;2022-09-21T19:20:08;7.80;;;3.60;;
62925;SDS011;55732;52.248;-0.844;2022-09-21T19:30:46;5.10;;;3.30;;
62925;SDS011;55732;52.248;-0.844;2022-09-21T19:33:26;5.20;;;3.50;;
62925;SDS011;55732;52.248;-0.844;2022-09-21T19:35:55;4.10;;;3.30;;
62925;SDS011;55732;52.248;-0.844;2022-09-21T19:38:21;6.30;;;3.50;;
62925;SDS011;55732;52.248;-0.844;2022-09-21T19:40:49;7.30;;;3.40;;
62925;SDS011;55732;52.248;-0.844;2022-09-21T19:43:26;7.00;;;3.50;;
62925;SDS011;55732;52.248;-0.844;2022-09-21T19:46:27;5.40;;;3.70;;